Terminal Aerodrome Forecast
Issued by NWS Twin Cities, MN

Home | Current Version | Previous Version | Graphics & Text | Print | Product List | Glossary On
Versions: 1 2 3 4 5 6 7 8 9 10 11 12 13 14 15 16 17 18 19
000
FTUS43 KMPX 261436 AAA
TAFSTC
TAF AMD
KSTC 261436Z 2615/2712 34012G20KT P6SM -RA SCT008 BKN015 OVC025
     FM262100 33010G16KT P6SM -DZ SCT008 OVC015
     FM270200 35006KT 6SM -SN BKN008 OVC015
     FM270400 35007KT P6SM BKN008 OVC015=

USA.gov is the U.S. government's official web portal to all federal, state and local government web resources and services.